Time;durP1;ratioP1;P1;durP2;ratioP2;P2;SDS_P1;SDS_P2;PMS_P1;PMS_P2;Temp;Humidity;BMP_temperature;BMP_pressure;BME280_temperature;BME280_humidity;BME280_pressure;Samples;Min_cycle;Max_cycle;Signal;HPM_P1;HPM_P2
2023/01/05 00:01:52;;;;;;;0.63;0.50;;;10.80;99.90;;;13.82;55.06;97987.63;5040303;28;20042;-51
2023/01/05 00:04:20;;;;;;;0.77;0.60;;;10.80;99.90;;;13.81;55.17;98000.19;5041123;28;20182;-49
2023/01/05 00:06:48;;;;;;;0.57;0.40;;;10.80;99.90;;;13.79;55.19;97988.84;5041870;28;20055;-52
2023/01/05 00:09:17;;;;;;;0.47;0.40;;;10.80;99.90;;;13.81;55.42;97986.81;5044743;28;20072;-52
2023/01/05 00:23:07;;;;;;;0.37;0.30;;;10.80;99.90;;;13.78;55.72;97977.31;5036957;28;20049;-49
2023/01/05 00:25:39;;;;;;;0.50;0.50;;;10.80;99.90;;;13.75;56.06;97985.66;5042989;28;20229;-54
2023/01/05 00:28:07;;;;;;;0.60;0.60;;;10.80;99.90;;;13.71;55.97;97989.69;5044988;28;20336;-48
2023/01/05 00:30:44;;;;;;;0.70;0.43;;;10.80;99.90;;;13.72;55.89;97975.28;5042794;28;20263;-50
2023/01/05 00:33:15;;;;;;;2.30;0.60;;;10.80;99.90;;;13.78;55.81;97982.66;5044421;28;20045;-52
2023/01/05 00:35:43;;;;;;;0.80;0.40;;;10.90;99.90;;;13.77;55.81;97966.75;5044202;28;20236;-51
2023/01/05 00:38:11;;;;;;;1.07;0.97;;;10.90;99.90;;;13.72;56.02;97966.44;5043834;28;20259;-53
2023/01/05 00:40:39;;;;;;;0.50;0.50;;;10.80;99.90;;;13.75;55.92;97966.09;5044173;28;20059;-51
2023/01/05 00:43:07;;;;;;;1.50;0.60;;;10.80;99.90;;;13.71;56.14;97962.13;5044166;28;20045;-52
2023/01/05 00:45:35;;;;;;;2.80;1.73;;;10.80;99.90;;;13.71;56.27;97970.97;5043704;28;20348;-49
2023/01/05 00:48:03;;;;;;;0.50;0.50;;;10.80;99.90;;;13.77;56.19;97970.28;5043144;28;20360;-51
2023/01/05 00:50:31;;;;;;;0.70;0.50;;;10.80;99.90;;;13.82;56.19;97969.72;5043878;28;20049;-51
2023/01/05 00:53:01;;;;;;;0.70;0.63;;;10.90;99.90;;;13.75;56.37;97972.28;5042189;28;20049;-49
2023/01/05 00:55:28;;;;;;;0.67;0.40;;;10.80;99.90;;;13.70;56.73;97968.47;5042702;28;20056;-52
2023/01/05 00:57:56;;;;;;;0.53;0.47;;;10.80;99.90;;;13.78;56.46;97961.25;5042936;28;20060;-51
2023/01/05 01:00:24;;;;;;;0.43;0.30;;;10.90;99.90;;;13.85;56.32;97964.03;5042702;28;20055;-52
2023/01/05 01:02:52;;;;;;;0.70;0.60;;;10.90;99.90;;;13.87;56.35;97977.25;5043562;28;20037;-51
2023/01/05 01:05:20;;;;;;;0.43;0.40;;;11.00;99.90;;;13.89;56.32;97967.22;5042205;28;20377;-52
2023/01/05 01:07:48;;;;;;;0.40;0.40;;;11.00;99.90;;;13.95;56.16;97970.00;5025561;28;20059;-53
2023/01/05 01:10:16;;;;;;;1.07;0.30;;;11.00;99.90;;;13.99;56.19;97981.22;5043589;28;20045;-51
2023/01/05 01:12:44;;;;;;;0.30;0.30;;;11.00;99.90;;;14.00;56.24;97977.53;5043438;28;20275;-52
2023/01/05 01:15:12;;;;;;;0.30;0.30;;;11.00;99.90;;;14.02;56.22;97985.41;5031111;28;20251;-49
2023/01/05 01:17:41;;;;;;;0.40;0.40;;;11.10;99.90;;;14.07;56.08;97985.69;5040241;28;20041;-50
2023/01/05 01:20:09;;;;;;;0.30;0.30;;;11.10;99.90;;;14.10;56.10;97980.81;5041215;28;20057;-49
2023/01/05 01:22:37;;;;;;;0.30;0.30;;;11.10;99.90;;;14.10;56.01;97966.63;5041070;28;20071;-53
2023/01/05 01:25:07;;;;;;;0.47;0.47;;;11.10;99.90;;;14.13;55.92;97960.88;5042014;28;20498;-51
2023/01/05 01:27:35;;;;;;;0.47;0.47;;;11.10;99.90;;;14.18;55.77;97975.41;5044035;28;20053;-49
2023/01/05 01:30:04;;;;;;;0.37;0.37;;;11.10;99.90;;;14.09;56.36;97956.91;5043055;28;20396;-54
2023/01/05 01:32:32;;;;;;;1.70;0.40;;;11.10;99.90;;;14.14;56.29;97967.91;5041741;28;20057;-49
2023/01/05 01:35:01;;;;;;;0.33;0.33;;;11.10;99.90;;;14.18;56.49;97966.56;5041980;28;20053;-49
2023/01/05 01:37:28;;;;;;;0.30;0.30;;;11.20;99.90;;;14.17;56.19;97962.19;5041437;28;20059;-50
2023/01/05 01:39:57;;;;;;;0.47;0.47;;;11.20;99.90;;;14.19;56.29;97965.56;5041948;28;20060;-52
2023/01/05 01:42:25;;;;;;;0.40;0.40;;;11.20;99.90;;;14.20;56.32;97972.56;5042912;28;20048;-53
2023/01/05 01:45:12;;;;;;;0.88;0.30;;;11.20;99.90;;;14.19;56.47;97965.56;5041288;28;20047;-52
2023/01/05 01:47:52;;;;;;;0.30;0.30;;;11.20;99.90;;;14.17;56.33;97957.69;5026512;28;20255;-53
2023/01/05 01:50:26;;;;;;;0.47;0.47;;;11.30;99.90;;;14.20;56.48;97961.03;5042692;28;20045;-51
2023/01/05 01:53:05;;;;;;;0.30;0.30;;;11.30;99.90;;;14.20;56.60;97975.25;5041406;28;20063;-50
2023/01/05 01:55:35;;;;;;;0.30;0.30;;;11.30;99.90;;;14.24;56.52;97971.19;5041391;28;20045;-50
2023/01/05 01:58:07;;;;;;;0.30;0.30;;;11.30;99.90;;;14.27;56.42;97965.50;5041560;28;20042;-50
2023/01/05 02:00:34;;;;;;;1.03;0.20;;;11.30;99.90;;;14.23;56.58;97956.16;5041593;28;20045;-50
2023/01/05 02:03:04;;;;;;;0.40;0.40;;;11.40;99.90;;;14.32;56.38;97951.56;5042544;28;20052;-52
2023/01/05 02:05:33;;;;;;;0.20;0.20;;;11.40;99.90;;;14.29;56.60;97939.38;5042452;28;20060;-48
2023/01/05 02:08:01;;;;;;;0.45;0.25;;;11.40;99.90;;;14.30;56.30;97941.03;5034743;28;20050;-51
2023/01/05 02:10:50;;;;;;;0.30;0.30;;;11.50;99.90;;;14.19;56.73;97944.16;5057808;28;20110;-51
2023/01/05 02:13:36;;;;;;;0.20;0.20;;;11.50;99.90;;;14.32;56.52;97936.34;5021126;28;20367;-53
2023/01/05 02:16:45;;;;;;;0.30;0.23;;;11.60;99.90;;;14.37;56.30;97935.81;5033738;28;20083;-52
2023/01/05 02:19:41;;;;;;;0.20;0.20;;;11.60;99.90;;;14.48;56.06;97937.22;5035441;28;20272;-52
2023/01/05 02:23:15;;;;;;;0.77;0.77;;;11.70;99.90;;;14.40;56.37;97961.41;5034638;28;20352;-50
2023/01/05 02:26:10;;;;;;;0.20;0.20;;;11.70;99.90;;;14.29;56.47;97930.53;5039699;28;20045;-50
2023/01/05 02:29:02;;;;;;;0.30;0.30;;;11.70;99.90;;;14.48;55.93;97926.50;5041948;28;20045;-51
2023/01/05 02:31:52;;;;;;;0.30;0.30;;;11.80;99.90;;;14.58;55.92;97932.50;5042041;28;20049;-47
2023/01/05 02:34:48;;;;;;;0.40;0.38;;;11.80;99.90;;;14.59;55.89;97933.34;5040926;28;20060;-49
2023/01/05 02:37:51;;;;;;;0.20;0.20;;;11.90;99.90;;;14.63;55.79;97942.69;5041109;28;20045;-50
2023/01/05 02:40:38;;;;;;;0.20;0.20;;;11.90;99.90;;;14.59;55.89;97936.84;5035615;28;20042;-49
2023/01/05 02:43:08;;;;;;;0.30;0.30;;;11.90;99.90;;;14.41;56.31;97947.84;5017486;28;20049;-48
2023/01/05 02:45:36;;;;;;;0.50;0.50;;;11.90;99.90;;;14.35;56.52;97932.47;5039835;28;20045;-52
2023/01/05 02:48:04;;;;;;;0.20;0.20;;;12.00;99.90;;;14.23;56.77;97945.44;5041829;28;20045;-50
2023/01/05 02:50:48;;;;;;;0.20;0.20;;;11.90;99.90;;;14.40;56.27;97924.72;5040711;28;20048;-48
2023/01/05 02:53:31;;;;;;;0.17;0.17;;;12.00;99.90;;;14.41;56.45;97925.59;5034656;28;20229;-48
2023/01/05 02:56:07;;;;;;;0.25;0.25;;;12.00;99.90;;;14.57;55.97;97920.13;5024838;28;20053;-50
2023/01/05 02:58:57;;;;;;;0.22;0.22;;;12.00;99.90;;;14.51;55.94;97920.81;5040288;28;20042;-48
2023/01/05 03:01:40;;;;;;;0.20;0.20;;;12.00;99.90;;;14.55;55.79;97919.44;5040800;28;20046;-50
2023/01/05 03:04:18;;;;;;;0.20;0.20;;;12.00;99.90;;;14.64;55.55;97925.59;5039790;28;20056;-51
2023/01/05 03:06:57;;;;;;;0.20;0.20;;;12.00;99.90;;;14.35;56.29;97921.78;5040652;28;20052;-47
2023/01/05 03:09:35;;;;;;;0.20;0.20;;;12.00;99.90;;;14.45;56.26;97935.75;5041612;28;20046;-48
2023/01/05 03:15:31;;;;;;;0.30;0.30;;;12.00;99.90;;;14.60;55.88;97935.00;5021786;28;20049;-51
2023/01/05 03:18:06;;;;;;;0.28;0.28;;;12.00;99.90;;;14.32;56.42;97941.69;5040650;28;20037;-50
2023/01/05 03:20:42;;;;;;;0.30;0.30;;;11.90;99.90;;;14.52;55.96;97942.06;5040476;28;20336;-51
2023/01/05 03:37:58;;;;;;;;;;;11.90;99.90;;;14.33;56.08;97959.44;5040529;28;20049;-48
2023/01/05 03:40:31;;;;;;;0.20;0.20;;;11.90;99.90;;;14.42;55.81;97962.06;5025107;28;19917;-48
2023/01/05 03:43:00;;;;;;;0.40;0.40;;;11.80;99.90;;;14.50;55.88;97960.16;5043093;28;20045;-52
2023/01/05 03:45:44;;;;;;;0.20;0.20;;;11.90;99.90;;;14.63;55.56;97951.53;5027502;28;20059;-53
2023/01/05 03:48:20;;;;;;;0.20;0.20;;;11.90;99.90;;;14.67;55.53;97952.84;5023272;28;20045;-50
2023/01/05 03:50:49;;;;;;;0.37;0.37;;;11.90;99.90;;;14.62;55.77;97938.31;5043730;28;20098;-52
2023/01/05 03:53:19;;;;;;;0.30;0.30;;;11.90;99.90;;;14.55;55.89;97943.53;5044024;28;20243;-53
2023/01/05 03:55:46;;;;;;;0.40;0.40;;;11.90;99.90;;;14.55;55.99;97935.50;5043238;28;20047;-52
2023/01/05 03:58:14;;;;;;;0.13;0.13;;;11.80;99.90;;;14.43;56.44;97935.09;5044907;28;20370;-50
2023/01/05 04:00:46;;;;;;;0.28;0.25;;;11.90;99.90;;;14.55;56.32;97954.25;5043763;28;20041;-50
2023/01/05 04:03:17;;;;;;;0.38;0.30;;;11.80;99.90;;;14.57;56.31;97941.56;5043791;28;20045;-53
2023/01/05 04:05:45;;;;;;;0.37;0.37;;;11.80;99.90;;;14.49;56.63;97938.91;5027017;28;20041;-52
2023/01/05 04:08:15;;;;;;;0.52;0.20;;;11.80;99.90;;;14.51;56.58;97959.13;5027747;28;20251;-51
2023/01/05 04:10:44;;;;;;;0.20;0.20;;;11.80;99.90;;;14.59;56.46;97944.88;5043535;28;20060;-52
2023/01/05 04:13:13;;;;;;;0.10;0.10;;;11.80;99.90;;;14.57;56.67;97941.56;5043804;28;20055;-51
2023/01/05 04:15:42;;;;;;;0.32;0.30;;;11.80;99.90;;;14.60;56.70;97937.66;5043025;28;20051;-51
2023/01/05 04:18:11;;;;;;;0.20;0.20;;;11.80;99.90;;;14.65;56.49;97946.84;5044621;28;20029;-49
2023/01/05 04:20:39;;;;;;;0.30;0.30;;;11.90;99.90;;;14.56;56.79;97954.13;5044314;28;20363;-50
2023/01/05 04:23:07;;;;;;;0.27;0.27;;;11.80;99.90;;;14.52;56.79;97952.78;5041530;28;20348;-53
2023/01/05 04:25:36;;;;;;;0.28;0.28;;;11.80;99.90;;;14.57;56.83;97942.38;5042109;28;20042;-49
2023/01/05 04:28:14;;;;;;;0.20;0.20;;;11.80;99.90;;;14.40;57.31;97950.69;5043543;28;20178;-52
2023/01/05 04:30:44;;;;;;;0.30;0.30;;;11.80;99.90;;;14.43;57.48;97953.84;5042852;28;20249;-51
2023/01/05 04:33:12;;;;;;;0.20;0.20;;;11.80;99.90;;;14.45;57.18;97951.81;5042979;28;20076;-51
2023/01/05 04:35:40;;;;;;;0.30;0.30;;;11.80;99.90;;;14.53;57.25;97954.44;5042172;28;20059;-52
2023/01/05 04:38:08;;;;;;;0.32;0.32;;;11.80;99.90;;;14.51;57.33;97967.19;5044195;28;20063;-51
2023/01/05 04:40:36;;;;;;;0.40;0.40;;;11.80;99.90;;;14.60;57.12;97967.13;5042784;28;20055;-51
2023/01/05 04:43:05;;;;;;;0.60;0.60;;;11.80;99.90;;;14.35;57.90;97969.97;5042630;28;20053;-49
2023/01/05 04:45:34;;;;;;;0.28;0.28;;;11.70;99.90;;;14.23;58.46;97974.91;5026694;28;20053;-52
2023/01/05 04:48:02;;;;;;;0.30;0.30;;;11.70;99.90;;;14.31;58.21;97977.53;5042708;28;20243;-52
2023/01/05 04:50:30;;;;;;;0.30;0.30;;;11.70;99.90;;;14.20;58.84;97969.06;5042365;28;20045;-51
2023/01/05 04:52:58;;;;;;;1.83;0.90;;;11.60;99.90;;;14.26;58.63;97987.94;5042740;28;20050;-48
2023/01/05 04:55:29;;;;;;;0.70;0.70;;;11.60;99.90;;;14.31;58.54;97990.91;5043175;28;20053;-50
2023/01/05 04:57:58;;;;;;;0.40;0.40;;;11.60;99.90;;;14.27;59.01;97992.28;5042747;28;20264;-49
2023/01/05 05:00:27;;;;;;;0.50;0.50;;;11.60;99.90;;;13.96;60.14;97998.47;5043780;28;20100;-52
2023/01/05 05:02:55;;;;;;;0.50;0.50;;;11.40;99.90;;;14.02;60.06;97994.25;5042556;28;20351;-51
2023/01/05 05:05:23;;;;;;;0.45;0.45;;;11.40;99.90;;;14.17;59.39;97994.34;5042180;28;20041;-54
2023/01/05 05:07:53;;;;;;;2.40;0.50;;;11.40;99.90;;;14.05;59.83;97990.38;5041751;28;20057;-52
2023/01/05 05:10:26;;;;;;;0.28;0.28;;;11.40;99.90;;;13.96;60.25;97993.09;5042776;28;20049;-50
2023/01/05 05:12:54;;;;;;;0.35;0.35;;;11.30;99.90;;;13.72;60.96;97986.00;5042303;28;20382;-53
2023/01/05 05:15:23;;;;;;;0.43;0.40;;;11.20;99.90;;;13.23;63.00;98004.00;5041915;28;20246;-49
2023/01/05 05:17:50;;;;;;;0.30;0.20;;;11.00;99.90;;;13.62;61.15;98019.31;5042789;28;20255;-51
2023/01/05 05:20:18;;;;;;;0.20;0.20;;;11.00;99.90;;;13.72;60.81;98003.91;5043555;28;20045;-49
2023/01/05 05:22:47;;;;;;;0.37;0.30;;;11.10;99.90;;;13.63;61.28;98003.09;5042090;28;20225;-51
2023/01/05 05:25:18;;;;;;;0.37;0.37;;;11.00;99.90;;;13.63;61.31;98005.78;5041432;28;20053;-51
2023/01/05 05:27:47;;;;;;;0.20;0.10;;;11.00;99.90;;;13.44;61.80;98006.16;5026279;28;20045;-51
2023/01/05 05:30:15;;;;;;;0.30;0.30;;;10.90;99.90;;;13.51;61.44;98020.50;5043631;28;20055;-52
2023/01/05 05:32:43;;;;;;;0.22;0.22;;;10.90;99.90;;;13.55;61.07;98016.47;5042993;28;20339;-53
2023/01/05 05:35:11;;;;;;;0.43;0.40;;;10.90;99.90;;;13.44;61.51;98015.00;5042893;28;20064;-48
2023/01/05 05:37:39;;;;;;;1.80;0.77;;;10.90;99.90;;;13.26;61.54;98015.19;5043175;28;20059;-51
2023/01/05 05:40:07;;;;;;;2.60;0.47;;;10.80;99.90;;;13.04;62.05;98014.03;5042411;28;20251;-51
2023/01/05 05:42:35;;;;;;;1.40;0.70;;;10.70;99.90;;;13.21;61.47;98017.53;5042881;28;20045;-52
2023/01/05 05:45:04;;;;;;;2.40;0.73;;;10.80;99.90;;;13.24;61.37;98025.22;5042594;28;20049;-47
2023/01/05 05:47:32;;;;;;;1.23;0.80;;;10.70;99.90;;;13.08;61.69;98028.72;5043235;28;20270;-52
2023/01/05 05:49:59;;;;;;;0.90;0.80;;;10.70;99.90;;;12.78;62.36;98060.44;5042859;28;20050;-51
2023/01/05 05:52:27;;;;;;;2.00;0.83;;;10.60;99.90;;;12.64;62.87;98045.06;5043749;28;20049;-51
2023/01/05 05:54:55;;;;;;;2.40;0.80;;;10.60;99.90;;;12.83;62.25;98051.09;5041081;28;20065;-48
2023/01/05 05:57:23;;;;;;;2.07;1.20;;;10.60;99.90;;;12.76;62.19;98045.59;5042680;28;20037;-49
2023/01/05 05:59:50;;;;;;;2.10;1.10;;;10.60;99.90;;;12.63;62.50;98046.06;5042544;28;20041;-52
2023/01/05 06:02:18;;;;;;;3.50;1.80;;;10.60;99.90;;;12.59;62.57;98066.09;5042479;28;20051;-53
2023/01/05 06:04:46;;;;;;;2.73;1.50;;;10.50;99.90;;;12.91;61.51;98056.44;5041773;28;20047;-53
2023/01/05 06:07:14;;;;;;;2.30;1.07;;;10.60;99.90;;;12.71;62.22;98062.09;5042524;28;20359;-52
2023/01/05 06:09:42;;;;;;;2.43;0.90;;;10.60;99.90;;;12.74;61.56;98063.63;5042433;28;20051;-53
2023/01/05 06:12:10;;;;;;;2.40;1.00;;;10.60;99.90;;;12.39;62.82;98085.06;5034414;28;20051;-52
2023/01/05 06:14:37;;;;;;;2.57;1.20;;;10.50;99.90;;;12.77;61.76;98088.16;5042139;28;20099;-50
2023/01/05 06:17:05;;;;;;;2.27;1.10;;;10.60;99.90;;;12.78;61.50;98095.19;5042150;28;20247;-53
2023/01/05 06:19:33;;;;;;;3.07;1.20;;;10.50;99.90;;;12.85;61.51;98086.50;5042376;28;20037;-49
2023/01/05 06:22:01;;;;;;;3.10;1.10;;;10.60;99.90;;;12.93;61.34;98089.19;5042289;28;20041;-52
2023/01/05 06:24:28;;;;;;;1.47;0.97;;;10.50;99.90;;;13.04;60.93;98101.41;5042036;28;20042;-52
2023/01/05 06:26:56;;;;;;;3.80;1.07;;;10.50;99.90;;;13.15;60.72;98103.75;5041307;28;20042;-53
2023/01/05 06:29:24;;;;;;;3.03;1.10;;;10.60;99.90;;;13.26;60.32;98100.75;5042108;28;20045;-51
2023/01/05 06:31:52;;;;;;;4.90;1.10;;;10.60;99.90;;;13.33;60.18;98114.31;5041888;28;20051;-53
2023/01/05 06:34:20;;;;;;;5.03;1.10;;;10.60;99.90;;;13.25;60.35;98112.44;5041723;28;20047;-51
2023/01/05 06:36:47;;;;;;;3.43;1.20;;;10.60;99.90;;;13.08;61.00;98108.06;5041842;28;20047;-53
2023/01/05 06:39:15;;;;;;;2.47;1.00;;;10.60;99.90;;;13.13;60.79;98109.25;5041877;28;20247;-50
2023/01/05 06:41:43;;;;;;;3.17;1.60;;;10.60;99.90;;;13.14;60.74;98115.44;5041826;28;20250;-53
2023/01/05 06:44:11;;;;;;;3.20;1.63;;;10.60;99.90;;;13.19;60.76;98113.09;5040464;28;20041;-53
2023/01/05 06:46:39;;;;;;;2.40;1.37;;;10.60;99.90;;;13.27;60.38;98114.94;5041750;28;20056;-52
2023/01/05 06:49:11;;;;;;;2.73;1.33;;;10.70;99.90;;;13.38;60.14;98118.16;5042250;28;20259;-52
2023/01/05 06:51:39;;;;;;;3.43;1.30;;;10.60;99.90;;;13.35;59.93;98118.47;5041623;28;20053;-53
2023/01/05 06:54:07;;;;;;;5.37;1.37;;;10.60;99.90;;;13.11;60.68;98121.13;5041859;28;20057;-50
2023/01/05 06:56:35;;;;;;;6.07;1.30;;;10.50;99.90;;;12.98;60.97;98121.59;5041822;28;20060;-53
2023/01/05 06:59:03;;;;;;;3.20;1.63;;;10.50;99.90;;;12.82;61.31;98114.38;5041499;28;20047;-53
2023/01/05 07:01:31;;;;;;;5.93;3.20;;;10.50;99.90;;;13.00;60.97;98133.78;5041952;28;20045;-49
2023/01/05 07:03:59;;;;;;;3.47;1.73;;;10.50;99.90;;;12.63;62.37;98136.88;5041339;28;20048;-51
2023/01/05 07:06:27;;;;;;;3.70;1.37;;;10.50;99.90;;;12.52;62.48;98137.16;5041815;28;20044;-53
2023/01/05 07:08:55;;;;;;;4.83;2.10;;;10.40;99.90;;;12.82;61.70;98137.63;5040902;28;20048;-52
2023/01/05 07:11:23;;;;;;;1.37;1.10;;;10.50;99.90;;;12.82;61.43;98140.28;5041977;28;20323;-51
2023/01/05 07:13:51;;;;;;;6.07;2.30;;;10.50;99.90;;;13.11;60.70;98139.84;5041069;28;20154;-51
2023/01/05 07:16:19;;;;;;;3.13;1.27;;;10.50;99.90;;;13.09;60.90;98131.97;5041228;28;20060;-53
2023/01/05 07:18:47;;;;;;;4.73;1.87;;;10.50;99.90;;;13.22;60.33;98136.81;5045294;28;20041;-52
2023/01/05 07:21:16;;;;;;;5.63;1.70;;;10.60;99.90;;;13.23;60.22;98141.16;5045873;28;20049;-48
2023/01/05 07:23:44;;;;;;;3.33;1.40;;;10.60;99.90;;;13.04;60.88;98138.81;5042837;28;20050;-49
2023/01/05 07:26:13;;;;;;;5.00;1.70;;;10.50;99.90;;;12.92;61.30;98143.63;5036114;28;20041;-51
2023/01/05 07:28:41;;;;;;;5.60;1.60;;;10.40;99.90;;;12.84;61.28;98139.09;5045481;28;20251;-55
2023/01/05 07:31:09;;;;;;;4.93;2.13;;;10.40;99.90;;;12.53;62.25;98136.19;5045139;28;20253;-52
2023/01/05 07:33:37;;;;;;;4.20;1.60;;;10.30;99.90;;;12.96;61.13;98127.09;5045341;28;20045;-52
2023/01/05 07:36:07;;;;;;;4.73;2.40;;;10.40;99.90;;;13.00;60.64;98138.31;5045291;28;20041;-53
2023/01/05 07:38:35;;;;;;;7.17;1.90;;;10.40;99.90;;;13.10;60.21;98136.31;5045070;28;20043;-50
2023/01/05 07:41:03;;;;;;;4.20;1.50;;;10.50;99.90;;;13.15;59.75;98131.31;5045030;28;20077;-54
2023/01/05 07:43:31;;;;;;;5.07;1.50;;;10.50;99.90;;;12.96;59.77;98143.13;5045135;28;20041;-52
2023/01/05 07:46:00;;;;;;;3.47;1.20;;;10.40;99.90;;;13.06;59.20;98145.66;5044659;28;20048;-53
2023/01/05 07:48:28;;;;;;;6.03;1.53;;;10.50;99.90;;;13.20;59.00;98150.38;5045011;28;20041;-53
2023/01/05 07:51:04;;;;;;;3.30;1.40;;;10.50;99.90;;;13.13;59.13;98144.00;5044864;28;20045;-53
2023/01/05 07:53:36;;;;;;;6.17;1.70;;;10.50;99.90;;;13.05;58.87;98152.03;5045049;28;20041;-50
2023/01/05 07:56:12;;;;;;;3.60;1.53;;;10.40;99.90;;;13.08;59.12;98159.69;5044409;28;20056;-53
2023/01/05 07:58:40;;;;;;;3.47;1.20;;;10.40;99.90;;;13.06;59.20;98167.03;5045212;28;20045;-53
2023/01/05 08:01:11;;;;;;;3.20;1.53;;;10.50;99.90;;;13.08;58.79;98170.38;5044799;28;20045;-54
2023/01/05 08:03:40;;;;;;;4.13;1.80;;;10.50;99.90;;;13.23;58.07;98183.94;5044499;28;20037;-54
2023/01/05 08:06:17;;;;;;;4.87;2.03;;;10.50;99.90;;;13.19;58.13;98182.59;5043801;28;20248;-51
2023/01/05 08:08:46;;;;;;;6.47;1.90;;;10.60;99.90;;;13.22;58.14;98176.91;5044714;28;20082;-52
2023/01/05 08:11:17;;;;;;;3.37;1.63;;;10.60;99.90;;;13.29;57.91;98175.25;5044475;28;20041;-54
2023/01/05 08:14:03;;;;;;;2.67;1.27;;;10.60;99.90;;;13.45;57.55;98187.84;5043121;28;20051;-53
2023/01/05 08:16:32;;;;;;;6.97;1.87;;;10.70;99.90;;;13.34;57.47;98183.66;5039037;28;20055;-50
2023/01/05 08:19:00;;;;;;;2.93;1.50;;;10.60;99.90;;;13.38;57.13;98190.34;5044336;28;20049;-50
2023/01/05 08:21:33;;;;;;;6.47;2.20;;;10.60;99.90;;;13.06;57.67;98188.41;5044547;28;20041;-52
2023/01/05 08:24:01;;;;;;;4.97;1.97;;;10.60;99.90;;;12.80;58.55;98200.03;5044199;28;20049;-54
2023/01/05 08:26:28;;;;;;;4.97;1.50;;;10.50;99.90;;;12.99;57.97;98201.63;5044670;28;20056;-51
2023/01/05 08:28:56;;;;;;;4.80;1.93;;;10.50;99.90;;;13.19;57.53;98204.81;5037265;28;20053;-53
2023/01/05 08:31:28;;;;;;;6.37;2.03;;;10.60;99.90;;;13.06;57.61;98215.16;5032913;28;20052;-53
2023/01/05 08:34:01;;;;;;;4.17;1.43;;;10.50;99.90;;;12.89;58.67;98213.44;5036798;28;20053;-52
2023/01/05 08:36:30;;;;;;;4.00;1.67;;;10.50;99.90;;;13.15;58.07;98213.34;5040645;28;20041;-53
2023/01/05 08:39:00;;;;;;;2.37;1.30;;;10.50;99.90;;;13.20;57.76;98209.19;5041897;28;20049;-48
2023/01/05 08:41:34;;;;;;;6.63;2.03;;;10.50;99.90;;;13.29;57.49;98206.53;5043905;28;20034;-54
2023/01/05 08:44:12;;;;;;;5.00;1.30;;;10.60;99.90;;;13.16;58.02;98212.34;5043577;28;20063;-52
2023/01/05 08:46:40;;;;;;;4.80;1.70;;;10.60;99.90;;;13.15;58.13;98210.69;5044182;28;20045;-50
2023/01/05 08:49:08;;;;;;;3.40;1.60;;;10.50;99.90;;;13.31;57.81;98209.91;5044126;28;20047;-51
2023/01/05 08:51:37;;;;;;;4.50;1.70;;;10.60;99.90;;;13.34;57.76;98220.28;5043587;28;20050;-52
2023/01/05 08:54:05;;;;;;;4.23;2.23;;;10.60;99.90;;;13.47;57.38;98228.63;5043345;28;20254;-50
2023/01/05 08:56:33;;;;;;;4.50;1.67;;;10.70;99.90;;;13.48;57.17;98234.84;5043994;28;20049;-53
2023/01/05 08:59:06;;;;;;;7.50;2.00;;;10.70;99.90;;;13.17;57.54;98246.94;5043888;28;20049;-54
2023/01/05 09:01:35;;;;;;;4.77;1.50;;;10.60;99.90;;;13.20;57.18;98249.28;5043903;28;20259;-51
2023/01/05 09:04:03;;;;;;;4.07;1.63;;;10.60;99.90;;;13.37;56.81;98249.34;5043533;28;20059;-53
2023/01/05 09:06:31;;;;;;;8.67;1.77;;;10.60;99.90;;;13.40;56.57;98251.72;5043884;28;20045;-51
2023/01/05 09:08:59;;;;;;;6.60;2.50;;;10.70;99.90;;;13.39;56.38;98255.38;5043865;28;20356;-53
2023/01/05 09:11:27;;;;;;;7.57;1.67;;;10.70;99.90;;;13.48;55.84;98266.94;5043392;28;20250;-51
2023/01/05 09:13:59;;;;;;;7.47;1.70;;;10.70;99.90;;;13.34;55.36;98247.03;5043021;28;20063;-53
2023/01/05 09:16:31;;;;;;;4.87;1.73;;;10.60;99.90;;;13.34;55.64;98266.56;5042774;28;20052;-50
2023/01/05 09:19:18;;;;;;;5.77;1.87;;;10.60;99.90;;;13.48;55.04;98265.09;5035909;28;20481;-53
2023/01/05 09:21:46;;;;;;;12.93;2.30;;;10.70;99.90;;;13.50;54.81;98271.09;5043411;28;20034;-55
2023/01/05 09:24:14;;;;;;;3.87;1.60;;;10.70;99.90;;;13.65;54.48;98273.13;5030785;28;20041;-51
2023/01/05 09:26:46;;;;;;;8.00;1.70;;;10.80;99.90;;;13.67;54.14;98274.66;5038344;28;20333;-50
2023/01/05 09:29:15;;;;;;;5.33;2.23;;;10.80;99.90;;;13.39;54.15;98279.44;5038599;28;20049;-51
2023/01/05 09:31:44;;;;;;;5.20;1.47;;;10.70;99.90;;;13.55;53.88;98271.47;5037139;28;20057;-52
2023/01/05 09:34:12;;;;;;;9.23;2.57;;;10.70;99.90;;;13.26;53.76;98277.22;5038470;28;20049;-54
2023/01/05 09:36:41;;;;;;;7.63;2.83;;;10.60;98.90;;;13.45;53.52;98288.66;5038351;28;20059;-53
2023/01/05 09:39:09;;;;;;;9.60;2.37;;;10.60;99.20;;;12.91;54.48;98292.47;5038807;28;20053;-51
2023/01/05 09:41:57;;;;;;;7.77;2.57;;;10.50;99.90;;;13.15;53.92;98293.56;5036694;28;20037;-53
2023/01/05 10:14:15;;;;;;;3.40;1.63;;;10.60;99.90;;;13.54;53.30;98296.53;5036223;28;20049;-54
2023/01/05 10:16:44;;;;;;;7.47;2.30;;;10.70;99.90;;;13.65;52.95;98297.19;5034140;28;20064;-49
2023/01/05 10:19:19;;;;;;;5.97;2.50;;;10.90;99.60;;;13.73;52.79;98290.03;5036402;28;20108;-53
2023/01/05 10:22:14;;;;;;;9.07;2.50;;;10.90;98.70;;;13.75;52.43;98280.00;5033285;28;20041;-48
2023/01/05 10:24:59;;;;;;;11.13;3.40;;;11.00;97.40;;;13.82;52.21;98282.84;5036325;28;20060;-52
2023/01/05 10:27:32;;;;;;;;;;;11.00;95.30;;;13.75;52.37;98282.69;5035876;28;20268;-48
2023/01/05 10:30:20;;;;;;;6.87;2.10;;;10.90;95.60;;;13.49;52.18;98281.97;5032254;28;19918;-52
2023/01/05 10:33:02;;;;;;;9.13;1.90;;;10.80;95.20;;;13.64;52.05;98290.19;5038708;28;20164;-52
2023/01/05 10:36:17;;;;;;;5.97;2.33;;;10.90;94.60;;;13.23;52.30;98282.06;5034178;28;20061;-50
2023/01/05 10:44:03;;;;;;;5.87;2.13;;;10.80;93.80;;;13.46;52.19;98280.47;5043618;28;20037;-52
2023/01/05 10:46:31;;;;;;;7.87;2.00;;;10.80;94.10;;;13.54;51.79;98279.66;5042143;28;20056;-50
2023/01/05 10:49:19;;;;;;;6.73;2.23;;;10.90;94.20;;;13.69;51.43;98278.00;5040933;28;20049;-52
2023/01/05 10:51:49;;;;;;;13.10;3.37;;;10.90;91.80;;;13.69;51.29;98269.97;5040810;28;20048;-51
2023/01/05 10:54:49;;;;;;;6.23;1.80;;;11.00;91.90;;;13.64;51.09;98268.78;5040919;28;20208;-51
2023/01/05 10:57:32;;;;;;;11.02;3.10;;;11.00;90.30;;;13.64;51.19;98268.78;5041664;28;20059;-52
2023/01/05 11:00:19;;;;;;;7.13;2.90;;;11.00;89.60;;;13.64;51.03;98274.13;5040612;28;20049;-52
2023/01/05 11:03:15;;;;;;;8.02;2.20;;;11.00;90.10;;;13.63;50.65;98278.66;5033560;28;20041;-48
2023/01/05 11:05:47;;;;;;;9.82;2.33;;;11.00;88.80;;;13.75;50.99;98274.66;5032948;28;20385;-53
2023/01/05 11:08:17;;;;;;;7.33;2.17;;;11.00;90.90;;;13.79;50.63;98289.38;5040598;28;20053;-52
2023/01/05 11:10:59;;;;;;;7.03;2.63;;;11.10;88.60;;;13.94;50.58;98291.41;5034087;28;20204;-55
2023/01/05 11:13:38;;;;;;;8.80;2.97;;;11.20;88.80;;;13.89;50.52;98294.56;5040396;28;20053;-50
2023/01/05 11:16:22;;;;;;;9.50;2.53;;;11.20;87.70;;;13.66;50.66;98277.50;5040838;28;20352;-51
2023/01/05 11:19:06;;;;;;;6.43;2.33;;;11.10;88.10;;;13.47;50.63;98289.31;5034847;28;20045;-53
2023/01/05 11:21:38;;;;;;;11.93;3.63;;;11.00;86.60;;;13.57;51.03;98281.97;5040535;28;20291;-52
2023/01/05 11:24:31;;;;;;;10.40;3.23;;;11.00;88.40;;;13.74;50.83;98288.19;5041811;28;20045;-52
2023/01/05 11:27:23;;;;;;;8.95;2.58;;;11.00;88.70;;;13.91;50.58;98281.84;5035774;28;20049;-52
2023/01/05 11:30:13;;;;;;;9.97;2.77;;;11.10;87.40;;;14.01;50.57;98280.84;5041376;28;20370;-51
2023/01/05 11:32:43;;;;;;;12.77;2.97;;;11.20;87.60;;;14.06;50.54;98276.66;5023829;28;20051;-48
2023/01/05 11:35:35;;;;;;;11.13;3.30;;;11.20;88.00;;;13.93;50.27;98279.84;5039755;28;20045;-51
2023/01/05 11:38:03;;;;;;;12.20;2.83;;;11.20;85.70;;;13.98;49.97;98280.19;5050998;28;20061;-52
2023/01/05 11:40:34;;;;;;;9.27;2.43;;;11.20;86.40;;;14.08;50.00;98279.19;5040164;28;20045;-52
2023/01/05 11:43:10;;;;;;;10.87;2.93;;;11.20;85.70;;;13.99;49.86;98287.19;5040481;28;20047;-53
2023/01/05 11:45:52;;;;;;;8.13;2.80;;;11.20;84.70;;;13.92;50.06;98285.34;5040465;28;20259;-52
2023/01/05 11:48:25;;;;;;;7.05;2.55;;;11.20;84.00;;;13.73;50.25;98278.50;5039994;28;20045;-54